createdAt,value
2022-09-05T04:57:20.294Z,56.401001
2022-09-05T05:00:08.971Z,57.728001
2022-09-05T05:05:02.426Z,58.091
2022-09-05T05:06:07.212Z,57.908001
2022-09-05T05:06:46.295Z,57.334999
2022-09-05T05:08:45.392Z,56.541
2022-09-05T05:12:18.245Z,56.189999
2022-09-05T05:18:04.988Z,55.542999
2022-09-05T05:18:05.414Z,55.007999
2022-09-05T05:18:06.027Z,54.615002
2022-09-05T05:20:41.112Z,53.955002
2022-09-05T05:22:26.507Z,53.611
2022-09-05T05:24:41.159Z,53.707001
2022-09-05T05:26:55.917Z,53.257999
2022-09-05T05:29:09.615Z,53.021
2022-09-05T05:31:28.544Z,52.908001
2022-09-05T05:33:43.749Z,52.846001
2022-09-05T05:35:58.514Z,52.848
2022-09-05T05:38:13.044Z,52.446999
2022-09-05T05:40:28.653Z,52.41
2022-09-05T05:42:45.515Z,52.291
2022-09-05T05:45:00.292Z,52.192001
2022-09-05T05:47:14.799Z,51.895
2022-09-05T05:49:32.336Z,52.047001
2022-09-05T05:52:00.716Z,52.310001
2022-09-05T05:54:05.243Z,52.367001
2022-09-05T05:56:19.650Z,52.320999
2022-09-05T05:58:33.986Z,52.307999
2022-09-05T17:01:10.375Z,41.397999
2022-09-05T17:03:28.519Z,41.476002
2022-09-05T17:05:40.073Z,41.634998
2022-09-05T17:07:55.457Z,41.148998
2022-09-05T17:10:09.925Z,40.112999
2022-09-05T17:12:24.369Z,39.512001
2022-09-05T17:14:38.704Z,39.394001
2022-09-05T17:16:53.110Z,38.936001
2022-09-05T17:19:07.472Z,38.459999
2022-09-05T17:21:43.547Z,38.479
2022-09-05T17:25:04.144Z,37.823002
2022-09-05T17:29:22.421Z,37.186001
2022-09-05T17:29:22.760Z,38.032001
2022-09-05T17:32:49.322Z,36.812
2022-09-05T17:35:17.006Z,37.223
2022-09-05T17:37:21.203Z,36.144001
2022-09-05T17:39:39.928Z,35.479
2022-09-05T17:41:53.274Z,34.872002
2022-09-05T17:44:07.697Z,35.035
2022-09-05T17:46:22.169Z,34.723999
2022-09-05T17:48:36.535Z,34.966
2022-09-05T17:50:50.957Z,36.122002
2022-09-05T17:53:25.414Z,36.083
2022-09-05T17:55:25.283Z,36.084
2022-09-05T17:57:39.904Z,35.861
2022-09-05T17:59:54.772Z,35.812
2022-09-05T18:02:12.306Z,35.245998
2022-09-05T18:04:28.231Z,35.57
2022-09-05T18:06:43.530Z,35.085999
2022-09-05T18:08:59.906Z,35.356998
2022-09-05T18:11:17.276Z,35.606998
2022-09-05T18:13:34.714Z,36.153
2022-09-05T18:15:48.970Z,36.306
2022-09-05T18:18:03.354Z,36.514
2022-09-05T18:20:17.803Z,36.624001
2022-09-05T18:22:34.228Z,36.904999
2022-09-05T18:24:49.107Z,36.863998
2022-09-05T18:27:11.376Z,37.181
2022-09-05T18:29:21.941Z,37.047001
2022-09-05T18:31:41.150Z,37.284
2022-09-05T18:33:57.049Z,37.404999
2022-09-05T18:36:11.150Z,37.491001
2022-09-05T18:38:27.522Z,37.594002
2022-09-05T18:40:42.983Z,37.294998
2022-09-05T18:42:57.403Z,37.326
2022-09-05T18:45:16.115Z,37.105
2022-09-05T18:47:33.729Z,37.125
2022-09-05T18:50:22.466Z,37.083
2022-09-05T18:52:07.251Z,37.210999
2022-09-05T18:54:25.353Z,37.271
2022-09-05T18:57:03.198Z,37.251999
2022-09-05T18:58:59.491Z,37.389999
2022-09-05T19:01:18.182Z,37.421001
2022-09-05T19:03:39.100Z,37.404999
2022-09-05T19:06:34.274Z,37.418999
2022-09-05T19:08:26.880Z,37.535
2022-09-05T19:10:35.347Z,37.563999
2022-09-05T19:12:53.642Z,37.694
2022-09-05T19:15:06.830Z,37.741001
2022-09-05T19:17:21.294Z,37.625999
2022-09-05T19:19:38.312Z,37.618999
2022-09-05T19:21:56.361Z,37.599998
2022-09-05T19:24:11.126Z,37.213001
2022-09-05T19:26:25.501Z,37.286999
2022-09-05T19:34:13.235Z,37.222
2022-09-05T19:36:09.107Z,37.044998
2022-09-05T19:36:48.435Z,37.203999
2022-09-05T19:37:01.424Z,37.021999
2022-09-05T19:37:50.569Z,36.91
2022-09-05T19:42:01.832Z,36.755001
2022-09-05T19:47:31.861Z,36.785999
2022-09-05T19:47:32.970Z,36.727001
2022-09-05T19:47:33.072Z,36.778999
2022-09-05T19:49:15.399Z,36.515999
2022-09-05T19:51:29.866Z,36.543999
2022-09-05T19:53:44.259Z,36.583
2022-09-05T19:56:00.594Z,36.530998
2022-09-05T19:58:18.709Z,36.444
2022-09-05T20:00:31.380Z,36.414001
2022-09-05T20:02:49.607Z,36.237999
2022-09-05T20:05:02.199Z,36.296001
2022-09-05T20:07:16.584Z,36.313999
2022-09-05T20:09:31.090Z,36.226002
2022-09-05T20:11:46.658Z,36.208
2022-09-05T20:13:59.866Z,36.215
2022-09-05T20:16:14.237Z,36.019001
2022-09-05T20:18:28.686Z,36.164001
2022-09-05T20:20:42.935Z,35.933998
2022-09-05T20:23:00.312Z,35.999001
2022-09-05T20:25:19.690Z,35.987999
2022-09-05T20:27:32.022Z,36.081001
2022-09-05T20:29:54.674Z,35.912998
2022-09-05T20:32:03.718Z,35.958
2022-09-05T20:35:02.073Z,36.016998
2022-09-05T20:39:43.764Z,36.082001
2022-09-05T20:43:12.954Z,35.976002
2022-09-05T20:43:26.075Z,36.092999
2022-09-05T20:43:37.803Z,36.008999
2022-09-05T20:45:44.820Z,35.916
2022-09-05T20:51:12.002Z,35.918999
2022-09-05T20:54:04.425Z,36.002998
2022-09-05T20:54:11.989Z,36.008999
2022-09-05T20:54:54.344Z,36.063999
2022-09-05T20:57:09.576Z,36.030998
2022-09-05T20:59:26.188Z,35.946999
2022-09-05T21:01:41.538Z,35.903
2022-09-05T21:03:55.929Z,36.171001
2022-09-05T21:06:10.250Z,36.139999
2022-09-05T21:08:24.667Z,36.105999
2022-09-05T21:10:55.488Z,36.151001
2022-09-05T21:12:57.341Z,36.325001
2022-09-05T21:15:20.540Z,36.23
2022-09-05T21:17:29.081Z,36.212002
2022-09-05T21:19:53.880Z,36.293999
2022-09-05T21:22:01.768Z,36.348
2022-09-05T21:24:18.776Z,36.308998
2022-09-05T21:26:30.495Z,36.284
2022-09-05T21:28:46.141Z,36.120998
